Map

Track Data

SID SEASON NUMBER BASIN SUBBASIN NAME ISO_TIME NATURE LAT LON WMO_WIND WMO_PRES WMO_AGENCY TRACK_TYPE DIST2LAND LANDFALL IFLAG USA_AGENCY USA_ATCF_ID USA_LAT USA_LON USA_RECORD USA_STATUS USA_WIND USA_PRES USA_SSHS USA_R34_NE USA_R34_SE USA_R34_SW USA_R34_NW USA_R50_NE USA_R50_SE USA_R50_SW USA_R50_NW USA_R64_NE USA_R64_SE USA_R64_SW USA_R64_NW USA_POCI USA_ROCI USA_RMW USA_EYE TOKYO_LAT TOKYO_LON TOKYO_GRADE TOKYO_WIND TOKYO_PRES TOKYO_R50_DIR TOKYO_R50_LONG TOKYO_R50_SHORT TOKYO_R30_DIR TOKYO_R30_LONG TOKYO_R30_SHORT TOKYO_LAND CMA_LAT CMA_LON CMA_CAT CMA_WIND CMA_PRES HKO_LAT HKO_LON HKO_CAT HKO_WIND HKO_PRES NEWDELHI_LAT NEWDELHI_LON NEWDELHI_GRADE NEWDELHI_WIND NEWDELHI_PRES NEWDELHI_CI NEWDELHI_DP NEWDELHI_POCI REUNION_LAT REUNION_LON REUNION_TYPE REUNION_WIND REUNION_PRES REUNION_TNUM REUNION_CI REUNION_RMW REUNION_R34_NE REUNION_R34_SE REUNION_R34_SW REUNION_R34_NW REUNION_R50_NE REUNION_R50_SE REUNION_R50_SW REUNION_R50_NW REUNION_R64_NE REUNION_R64_SE REUNION_R64_SW REUNION_R64_NW BOM_LAT BOM_LON BOM_TYPE BOM_WIND BOM_PRES BOM_TNUM BOM_CI BOM_RMW BOM_R34_NE BOM_R34_SE BOM_R34_SW BOM_R34_NW BOM_R50_NE BOM_R50_SE BOM_R50_SW BOM_R50_NW BOM_R64_NE BOM_R64_SE BOM_R64_SW BOM_R64_NW BOM_ROCI BOM_POCI BOM_EYE BOM_POS_METHOD BOM_PRES_METHOD NADI_LAT NADI_LON NADI_CAT NADI_WIND NADI_PRES WELLINGTON_LAT WELLINGTON_LON WELLINGTON_WIND WELLINGTON_PRES DS824_LAT DS824_LON DS824_STAGE DS824_WIND DS824_PRES TD9636_LAT TD9636_LON TD9636_STAGE TD9636_WIND TD9636_PRES TD9635_LAT TD9635_LON TD9635_WIND TD9635_PRES TD9635_ROCI NEUMANN_LAT NEUMANN_LON NEUMANN_CLASS NEUMANN_WIND NEUMANN_PRES MLC_LAT MLC_LON MLC_CLASS MLC_WIND MLC_PRES USA_GUST BOM_GUST BOM_GUST_PER REUNION_GUST REUNION_GUST_PER USA_SEAHGT USA_SEARAD_NE USA_SEARAD_SE USA_SEARAD_SW USA_SEARAD_NW STORM_SPEED STORM_DIR
1995253N18318 1995 63 NA NA NOT_NAMED 1995-09-09 12:00:00 TS 17.9000 -41.9000 25 1009 hurdat_atl main 1835 1807 O_____________ hurdat_atl AL141995 17.9000 -41.9000 TD 25 1009 -1 14 286
1995253N18318 1995 63 NA NA NOT_NAMED 1995-09-09 15:00:00 TS 18.1007 -42.6146 main 1807 1781 P_____________ AL141995 18.1007 -42.6146 TD 25 1009 -1 14 287
1995253N18318 1995 63 NA NA NOT_NAMED 1995-09-09 18:00:00 TS 18.3000 -43.3000 25 1009 hurdat_atl main 1781 1760 O_____________ hurdat_atl AL141995 18.3000 -43.3000 TD 25 1009 -1 13 288
1995253N18318 1995 63 NA NA NOT_NAMED 1995-09-09 21:00:00 TS 18.4995 -43.9427 main 1763 1743 P_____________ AL141995 18.4995 -43.9427 TD 25 1009 -1 13 288
1995253N18318 1995 63 NA NA NOT_NAMED 1995-09-10 00:00:00 TS 18.7000 -44.6000 25 1009 hurdat_atl main 1743 1721 O_____________ hurdat_atl AL141995 18.7000 -44.6000 TD 25 1009 -1 14 286
1995253N18318 1995 63 NA NA NOT_NAMED 1995-09-10 03:00:00 TS 18.8622 -45.3208 main 1726 1702 P_____________ AL141995 18.8622 -45.3208 TD 25 1009 -1 15 286
1995253N18318 1995 63 NA NA NOT_NAMED 1995-09-10 06:00:00 TS 19.1000 -46.1000 25 1009 hurdat_atl main 1707 1702 O_____________ hurdat_atl AL141995 19.1000 -46.1000 TD 25 1009 -1 17 293
1995253N18318 1995 63 NA NA NOT_NAMED 1995-09-10 09:00:00 TS 19.5200 -46.9496 main 1713 1709 P_____________ AL141995 19.5200 -46.9496 TD 25 1009 -1 18 299
1995253N18318 1995 63 NA NA NOT_NAMED 1995-09-10 12:00:00 TS 20.0000 -47.8000 25 1009 hurdat_atl main 1723 1719 O_____________ hurdat_atl AL141995 20.0000 -47.8000 TD 25 1009 -1 18 300
1995253N18318 1995 63 NA NA NOT_NAMED 1995-09-10 15:00:00 TS 20.3994 -48.5583 main 1714 1685 P_____________ AL141995 20.3994 -48.5583 TD 25 1009 -1 16 300
1995253N18318 1995 63 NA NA NOT_NAMED 1995-09-10 18:00:00 TS 20.8000 -49.3000 25 1009 hurdat_atl main 1685 1650 O_____________ hurdat_atl AL141995 20.8000 -49.3000 TD 25 1009 -1 17 300
1995253N18318 1995 63 NA NA NOT_NAMED 1995-09-10 21:00:00 TS 21.2425 -50.1151 main 1650 1578 P_____________ AL141995 21.2425 -50.1151 TD 25 1009 -1 17 301
1995253N18318 1995 63 NA NA NOT_NAMED 1995-09-11 00:00:00 TS 21.7000 -50.9000 25 1009 hurdat_atl main 1578 1527 O_____________ hurdat_atl AL141995 21.7000 -50.9000 TD 25 1009 -1 16 304
1995253N18318 1995 63 NA NA NOT_NAMED 1995-09-11 03:00:00 TS 22.1570 -51.5804 main 1519 1471 P_____________ AL141995 22.1570 -51.5804 TD 27 1008 -1 15 307
1995253N18318 1995 63 NA NA NOT_NAMED 1995-09-11 06:00:00 TS 22.6000 -52.2000 30 1008 hurdat_atl main 1471 1426 O_____________ hurdat_atl AL141995 22.6000 -52.2000 TD 30 1008 -1 14 306
1995253N18318 1995 63 NA NA NOT_NAMED 1995-09-11 09:00:00 TS 22.9998 -52.8155 main 1426 1384 P_____________ AL141995 22.9998 -52.8155 TD 30 1008 -1 14 306
1995253N18318 1995 63 NA NA NOT_NAMED 1995-09-11 12:00:00 TS 23.4000 -53.4000 30 1008 hurdat_atl main 1384 1354 O_____________ hurdat_atl AL141995 23.4000 -53.4000 TD 30 1008 -1 14 309
1995253N18318 1995 63 NA NA NOT_NAMED 1995-09-11 15:00:00 TS 23.8571 -53.9502 main 1350 1324 P_____________ AL141995 23.8571 -53.9502 TD 30 1008 -1 14 312
1995253N18318 1995 63 NA NA NOT_NAMED 1995-09-11 18:00:00 TS 24.3000 -54.5000 30 1008 hurdat_atl main 1324 1287 O_____________ hurdat_atl AL141995 24.3000 -54.5000 TD 30 1008 -1 14 307
1995253N18318 1995 63 NA NA NOT_NAMED 1995-09-11 21:00:00 TS 24.6803 -55.1374 main 1293 1260 P_____________ AL141995 24.6803 -55.1374 TD 30 1008 -1 13 303
1995253N18318 1995 63 NA NA NOT_NAMED 1995-09-12 00:00:00 TS 25.0000 -55.7000 30 1008 hurdat_atl main 1260 1248 O_____________ hurdat_atl AL141995 25.0000 -55.7000 TD 30 1008 -1 10 307
1995253N18318 1995 63 NA NA NOT_NAMED 1995-09-12 03:00:00 TS 25.2794 -56.0231 main 1254 1243 P_____________ AL141995 25.2794 -56.0231 TD 30 1008 -1 7 313
1995253N18318 1995 63 NA NA NOT_NAMED 1995-09-12 06:00:00 TS 25.5000 -56.3000 30 1008 hurdat_atl main 1243 1219 O_____________ hurdat_atl AL141995 25.5000 -56.3000 TD 30 1008 -1 7 300
1995253N18318 1995 63 NA NA NOT_NAMED 1995-09-12 09:00:00 TS 25.6502 -56.7427 main 1226 1196 P_____________ AL141995 25.6502 -56.7427 TD 30 1008 -1 9 290
1995253N18318 1995 63 NA NA NOT_NAMED 1995-09-12 12:00:00 TS 25.8000 -57.2000 30 1008 hurdat_atl main 1196 1188 O_____________ hurdat_atl AL141995 25.8000 -57.2000 TD 30 1008 -1 8 299
1995253N18318 1995 63 NA NA NOT_NAMED 1995-09-12 15:00:00 TS 26.0571 -57.5425 main 1197 1183 P_____________ AL141995 26.0571 -57.5425 TD 30 1008 -1 8 308
1995253N18318 1995 63 NA NA NOT_NAMED 1995-09-12 18:00:00 TS 26.3000 -57.9000 30 1008 hurdat_atl main 1185 1166 O_____________ hurdat_atl AL141995 26.3000 -57.9000 TD 30 1008 -1 8 298
1995253N18318 1995 63 NA NA NOT_NAMED 1995-09-12 21:00:00 TS 26.4450 -58.3700 main 1160 1136 P_____________ AL141995 26.4450 -58.3700 TD 30 1008 -1 9 283
1995253N18318 1995 63 NA NA NOT_NAMED 1995-09-13 00:00:00 TS 26.5000 -58.9000 30 1009 hurdat_atl main 1136 1106 O_____________ hurdat_atl AL141995 26.5000 -58.9000 TD 30 1009 -1 9 274
1995253N18318 1995 63 NA NA NOT_NAMED 1995-09-13 03:00:00 TS 26.5097 -59.4272 main 1106 1063 P_____________ AL141995 26.5097 -59.4272 TD 30 1009 -1 10 264
1995253N18318 1995 63 NA NA NOT_NAMED 1995-09-13 06:00:00 TS 26.4000 -60.0000 30 1009 hurdat_atl main 1063 1012 O_____________ hurdat_atl AL141995 26.4000 -60.0000 TD 30 1009 -1 11 251
1995253N18318 1995 63 NA NA NOT_NAMED 1995-09-13 09:00:00 TS 26.1432 -60.6336 main 1002 938 P_____________ AL141995 26.1432 -60.6336 TD 27 1009 -1 13 243
1995253N18318 1995 63 NA NA NOT_NAMED 1995-09-13 12:00:00 TS 25.8000 -61.3000 25 1009 hurdat_atl main 938 O_____________ hurdat_atl AL141995 25.8000 -61.3000 TD 25 1009 -1 14 240

About IBTrACS Database

This database is a web-friendly format of International Best Track Archive for Climate Stewardship (IBTrACS), a global best track data archive curated by NOAA dating back to 1842.

Updated: 2021-12-03